Time;durP1;ratioP1;P1;durP2;ratioP2;P2;SDS_P1;SDS_P2;PMS_P1;PMS_P2;Temp;Humidity;BMP_temperature;BMP_pressure;BME280_temperature;BME280_humidity;BME280_pressure;Samples;Min_cycle;Max_cycle;Signal;HPM_P1;HPM_P2
2022/03/08 00:00:49;;;;;;;14.07;9.60;;;;;;;2.69;100.00;99308.03;5069934;28;20667;-76
2022/03/08 00:03:16;;;;;;;14.83;10.13;;;;;;;2.62;100.00;99307.16;5070131;28;20208;-76
2022/03/08 00:05:44;;;;;;;13.33;9.60;;;;;;;2.59;100.00;99307.19;5069695;28;20192;-77
2022/03/08 00:08:11;;;;;;;13.50;10.23;;;;;;;2.72;100.00;99306.28;5069929;28;20201;-77
2022/03/08 00:10:38;;;;;;;14.40;10.00;;;;;;;2.69;100.00;99306.31;5071626;28;20229;-77
2022/03/08 00:13:05;;;;;;;12.80;9.80;;;;;;;2.27;100.00;99226.91;5073885;28;20198;-76
2022/03/08 00:15:32;;;;;;;12.97;10.07;;;;;;;2.57;100.00;99295.22;5073817;28;20708;-76
2022/03/08 00:17:59;;;;;;;14.17;10.47;;;;;;;2.68;100.00;99312.28;5073690;28;20692;-76
2022/03/08 00:20:26;;;;;;;13.27;10.13;;;;;;;2.39;100.00;99268.72;5073824;28;20278;-77
2022/03/08 00:22:54;;;;;;;12.03;9.63;;;;;;;2.80;100.00;99307.16;5073965;28;20245;-77
2022/03/08 00:25:21;;;;;;;13.37;10.13;;;;;;;2.70;100.00;99300.34;5073847;28;20226;-76
2022/03/08 00:27:48;;;;;;;13.13;9.90;;;;;;;2.61;100.00;99302.03;5073739;28;20282;-76
2022/03/08 00:30:17;;;;;;;13.90;10.50;;;;;;;2.52;100.00;99290.09;5073509;28;20198;-76
2022/03/08 00:32:44;;;;;;;11.13;9.43;;;;;;;2.49;100.00;99306.28;5073276;28;20580;-76
2022/03/08 00:35:11;;;;;;;12.33;9.57;;;;;;;2.64;100.00;99302.88;5073377;28;20657;-76
2022/03/08 00:37:39;;;;;;;12.57;10.47;;;;;;;2.55;100.00;99305.47;5073367;28;20200;-76
2022/03/08 00:40:11;;;;;;;12.73;10.03;;;;;;;2.62;100.00;99296.03;5073662;28;20199;-77
2022/03/08 00:42:37;;;;;;;14.43;10.47;;;;;;;2.67;100.00;99296.91;5073172;28;20304;-77
2022/03/08 00:45:07;;;;;;;15.07;11.50;;;;;;;2.55;100.00;99290.94;5073513;28;20574;-76
2022/03/08 00:47:34;;;;;;;16.73;10.50;;;;;;;2.51;100.00;99301.19;5073236;28;20245;-76
2022/03/08 00:50:02;;;;;;;15.33;10.30;;;;;;;2.45;100.00;99280.69;5073165;28;20198;-76
2022/03/08 00:52:29;;;;;;;10.87;8.97;;;;;;;2.64;100.00;99290.06;5073096;28;20194;-76
2022/03/08 00:54:56;;;;;;;12.17;9.87;;;;;;;2.45;100.00;99268.75;5073152;28;20200;-77
2022/03/08 00:57:24;;;;;;;12.60;9.70;;;;;;;2.56;100.00;99273.88;5073027;28;20193;-77
2022/03/08 00:59:51;;;;;;;10.40;8.70;;;;;;;2.44;100.00;99250.81;5072851;28;20203;-76
2022/03/08 01:02:18;;;;;;;12.67;9.17;;;;;;;2.58;100.00;99258.50;5072878;28;20227;-77
2022/03/08 01:04:45;;;;;;;9.53;8.53;;;;;;;2.54;100.00;99262.75;5073106;28;20227;-76
2022/03/08 01:07:12;;;;;;;10.07;9.03;;;;;;;2.02;100.00;99211.56;5072823;28;20291;-76
2022/03/08 01:09:39;;;;;;;12.87;9.50;;;;;;;2.29;100.00;99271.28;5072895;28;20652;-76
2022/03/08 01:12:07;;;;;;;10.87;8.40;;;;;;;2.40;100.00;99275.56;5073032;28;20226;-77
2022/03/08 01:14:36;;;;;;;11.33;9.30;;;;;;;2.42;100.00;99273.88;5072607;28;20203;-76
2022/03/08 01:17:03;;;;;;;12.47;9.97;;;;;;;2.27;100.00;99265.31;5072898;28;20196;-76
2022/03/08 01:19:30;;;;;;;12.23;9.63;;;;;;;2.33;100.00;99271.31;5072750;28;20254;-77
2022/03/08 01:21:57;;;;;;;13.63;10.07;;;;;;;2.27;100.00;99283.22;5072135;28;20706;-77
2022/03/08 01:24:24;;;;;;;15.80;10.73;;;;;;;2.26;100.00;99279.00;5072730;28;20196;-76
2022/03/08 01:26:51;;;;;;;15.23;10.37;;;;;;;2.32;100.00;99276.41;5072405;28;20291;-77
2022/03/08 01:29:18;;;;;;;15.40;10.67;;;;;;;2.40;100.00;99288.38;5072386;28;20629;-76
2022/03/08 01:31:46;;;;;;;14.63;10.27;;;;;;;2.48;100.00;99281.53;5072266;28;20279;-76
2022/03/08 01:34:13;;;;;;;13.97;9.80;;;;;;;2.30;100.00;99253.38;5073002;28;20193;-75
2022/03/08 01:36:41;;;;;;;14.40;9.13;;;;;;;2.24;100.00;99250.81;5072319;28;20192;-76
2022/03/08 01:39:08;;;;;;;14.67;9.63;;;;;;;2.32;100.00;99256.78;5072526;28;20188;-77
2022/03/08 01:41:36;;;;;;;13.80;10.07;;;;;;;2.33;100.00;99255.94;5072140;28;20226;-76
2022/03/08 01:44:03;;;;;;;15.80;10.57;;;;;;;2.08;100.00;99237.16;5072351;28;20197;-77
2022/03/08 01:46:30;;;;;;;12.93;9.27;;;;;;;2.40;100.00;99297.75;5072831;28;20192;-76
2022/03/08 01:48:59;;;;;;;13.70;9.83;;;;;;;2.47;100.00;99287.53;5072051;28;20193;-77
2022/03/08 01:51:26;;;;;;;15.90;11.67;;;;;;;2.43;100.00;99282.41;5072188;28;20790;-76
2022/03/08 01:53:53;;;;;;;16.43;11.23;;;;;;;2.46;100.00;99290.09;5071953;28;20192;-77
2022/03/08 01:56:19;;;;;;;17.70;11.47;;;;;;;2.50;100.00;99287.50;5072169;28;20212;-79
2022/03/08 01:58:46;;;;;;;18.37;11.13;;;;;;;2.59;100.00;99289.25;5072295;28;20581;-77
2022/03/08 02:01:13;;;;;;;18.90;12.70;;;;;;;2.65;100.00;99291.78;5072071;28;20197;-77
2022/03/08 02:03:40;;;;;;;16.87;12.67;;;;;;;2.65;100.00;99289.22;5072074;28;20193;-77
2022/03/08 02:06:09;;;;;;;19.57;14.30;;;;;;;2.70;100.00;99290.09;5072208;28;20577;-77
2022/03/08 02:08:36;;;;;;;22.60;14.30;;;;;;;2.80;100.00;99291.78;5071802;28;20611;-75
2022/03/08 02:11:03;;;;;;;22.97;15.27;;;;;;;2.91;100.00;99299.44;5071905;28;20228;-76
2022/03/08 02:13:29;;;;;;;21.47;14.10;;;;;;;2.88;100.00;99308.00;5071921;28;20202;-76
2022/03/08 02:15:56;;;;;;;22.37;14.60;;;;;;;2.88;100.00;99310.56;5072042;28;20636;-76
2022/03/08 02:18:23;;;;;;;22.03;14.70;;;;;;;2.79;100.00;99305.44;5071663;28;20260;-76
2022/03/08 02:20:50;;;;;;;21.37;15.30;;;;;;;2.89;100.00;99313.97;5071626;28;20198;-76
2022/03/08 02:23:18;;;;;;;20.10;14.77;;;;;;;2.85;100.00;99315.69;5071452;28;20206;-77
2022/03/08 02:25:45;;;;;;;21.80;14.37;;;;;;;2.87;100.00;99308.84;5071713;28;20690;-77
2022/03/08 02:28:12;;;;;;;21.73;14.20;;;;;;;2.95;100.00;99307.97;5071468;28;20201;-77
2022/03/08 02:30:39;;;;;;;21.27;13.90;;;;;;;2.98;100.00;99310.53;5071316;28;20213;-76
2022/03/08 02:33:08;;;;;;;18.07;13.43;;;;;;;2.90;100.00;99290.06;5070618;28;20206;-76
2022/03/08 02:35:35;;;;;;;22.27;14.73;;;;;;;2.91;100.00;99279.81;5071227;28;20693;-77
2022/03/08 02:38:05;;;;;;;18.17;12.60;;;;;;;3.10;100.00;99310.50;5071481;28;20208;-76
2022/03/08 02:40:35;;;;;;;20.40;12.90;;;;;;;2.98;100.00;99306.25;5071567;28;20596;-76
2022/03/08 02:43:02;;;;;;;21.60;14.50;;;;;;;2.99;100.00;99309.69;5070992;28;20735;-76
2022/03/08 02:45:29;;;;;;;21.80;14.17;;;;;;;3.01;100.00;99302.84;5071198;28;20658;-78
2022/03/08 02:47:56;;;;;;;22.03;13.27;;;;;;;3.10;100.00;99302.81;5071082;28;20199;-76
2022/03/08 02:50:24;;;;;;;19.93;13.07;;;;;;;2.92;100.00;99283.22;5071024;28;20202;-76
2022/03/08 02:52:53;;;;;;;22.83;13.80;;;;;;;2.80;100.00;99273.84;5070803;28;20227;-76
2022/03/08 02:55:22;;;;;;;21.47;14.50;;;;;;;2.90;100.00;99293.47;5071021;28;20202;-79
2022/03/08 02:57:51;;;;;;;22.30;14.10;;;;;;;2.93;100.00;99287.50;5071124;28;20580;-79
2022/03/08 03:00:20;;;;;;;21.07;14.37;;;;;;;2.78;100.00;99252.47;5071235;28;20206;-80
2022/03/08 03:02:47;;;;;;;22.60;14.60;;;;;;;3.12;100.00;99303.69;5070859;28;20573;-79
2022/03/08 03:05:15;;;;;;;23.63;14.30;;;;;;;3.06;100.00;99303.69;5070757;28;20199;-80
2022/03/08 03:07:42;;;;;;;22.63;14.77;;;;;;;3.00;100.00;99299.44;5070660;28;20195;-78
2022/03/08 03:10:11;;;;;;;24.67;13.90;;;;;;;2.85;100.00;99269.53;5071206;28;20203;-79
2022/03/08 03:12:38;;;;;;;19.10;13.07;;;;;;;3.09;100.00;99303.69;5070652;28;20231;-79
2022/03/08 03:15:10;;;;;;;21.03;13.23;;;;;;;3.13;100.00;99303.69;5071086;28;20201;-79
2022/03/08 03:17:37;;;;;;;16.40;11.80;;;;;;;3.14;100.00;99304.53;5070789;28;20196;-80
2022/03/08 03:20:06;;;;;;;18.47;13.40;;;;;;;2.85;100.00;99258.44;5070750;28;20213;-80
2022/03/08 03:22:33;;;;;;;16.50;11.60;;;;;;;3.08;100.00;99305.38;5070571;28;20209;-80
2022/03/08 03:24:59;;;;;;;18.30;11.70;;;;;;;2.81;100.00;99305.44;5070901;28;20901;-80
2022/03/08 03:27:26;;;;;;;19.13;12.67;;;;;;;2.47;100.00;99261.91;5070749;28;20576;-79
2022/03/08 03:29:53;;;;;;;17.23;12.60;;;;;;;2.76;100.00;99313.13;5070613;28;20194;-79
2022/03/08 03:32:23;;;;;;;16.00;11.90;;;;;;;2.75;100.00;99303.72;5070496;28;20222;-80
2022/03/08 03:34:50;;;;;;;17.87;12.33;;;;;;;2.71;100.00;99296.88;5070432;28;20198;-76
2022/03/08 03:37:17;;;;;;;20.10;12.90;;;;;;;2.44;100.00;99253.38;5070139;28;20197;-76
2022/03/08 03:39:44;;;;;;;19.10;12.33;;;;;;;2.90;100.00;99302.88;5070160;28;20572;-77
2022/03/08 03:42:11;;;;;;;17.97;12.60;;;;;;;2.76;100.00;99305.44;5070216;28;20727;-77
2022/03/08 03:44:38;;;;;;;20.13;12.20;;;;;;;2.73;100.00;99308.00;5069933;28;20192;-77
2022/03/08 03:47:05;;;;;;;22.23;12.60;;;;;;;2.67;100.00;99310.59;5070286;28;20206;-77
2022/03/08 03:49:33;;;;;;;17.30;11.73;;;;;;;2.78;100.00;99311.44;5070066;28;20200;-78
2022/03/08 03:52:00;;;;;;;15.97;10.07;;;;;;;2.73;100.00;99304.59;5070204;28;20738;-76
2022/03/08 03:54:27;;;;;;;18.17;13.07;;;;;;;2.39;100.00;99296.03;5070023;28;20574;-76
2022/03/08 03:56:54;;;;;;;20.90;13.23;;;;;;;2.58;100.00;99319.97;5070084;28;20590;-77
2022/03/08 03:59:21;;;;;;;23.47;13.90;;;;;;;2.66;100.00;99311.44;5069857;28;20209;-76
2022/03/08 04:01:48;;;;;;;20.00;13.40;;;;;;;2.48;100.00;99314.00;5069578;28;20594;-81
2022/03/08 04:04:15;;;;;;;20.27;12.50;;;;;;;2.58;100.00;99312.28;5068753;28;20219;-76
2022/03/08 04:06:44;;;;;;;20.63;13.93;;;;;;;2.60;100.00;99308.84;5068464;28;20197;-74
2022/03/08 04:09:13;;;;;;;16.87;11.03;;;;;;;2.40;100.00;99290.06;5068978;28;20202;-75
2022/03/08 04:11:40;;;;;;;17.90;10.97;;;;;;;2.50;100.00;99309.72;5065860;28;20259;-75
2022/03/08 04:14:06;;;;;;;18.90;11.47;;;;;;;2.55;100.00;99311.44;5068447;28;20204;-74
2022/03/08 04:16:33;;;;;;;18.00;11.10;;;;;;;2.51;100.00;99316.53;5068251;28;20192;-74
2022/03/08 04:19:00;;;;;;;17.80;11.83;;;;;;;2.49;100.00;99311.41;5068417;28;20218;-75
2022/03/08 04:21:27;;;;;;;18.63;11.20;;;;;;;2.50;100.00;99313.13;5068207;28;20199;-76
2022/03/08 04:23:56;;;;;;;17.27;11.87;;;;;;;2.30;100.00;99278.97;5068221;28;20201;-75
2022/03/08 04:26:23;;;;;;;17.03;12.23;;;;;;;2.51;100.00;99311.41;5064411;28;20195;-75
2022/03/08 04:28:50;;;;;;;18.70;12.53;;;;;;;2.50;100.00;99309.72;5067539;28;20213;-76
2022/03/08 04:31:17;;;;;;;22.67;12.83;;;;;;;2.39;100.00;99316.53;5065369;28;20631;-75
2022/03/08 04:33:44;;;;;;;20.37;12.73;;;;;;;2.56;100.00;99317.41;5068210;28;20198;-76
2022/03/08 04:36:11;;;;;;;19.93;13.17;;;;;;;2.32;100.00;99284.09;5068138;28;20662;-75
2022/03/08 04:38:38;;;;;;;21.00;14.03;;;;;;;2.52;100.00;99326.81;5068215;28;20184;-75
2022/03/08 04:41:06;;;;;;;23.23;13.83;;;;;;;2.32;100.00;99287.53;5068107;28;20231;-76
2022/03/08 04:43:34;;;;;;;22.13;15.50;;;;;;;2.62;100.00;99326.78;5068192;28;20204;-76
2022/03/08 04:46:01;;;;;;;23.17;14.43;;;;;;;2.63;100.00;99329.34;5068041;28;20225;-77
2022/03/08 04:48:28;;;;;;;18.87;12.60;;;;;;;2.61;100.00;99325.94;5068248;28;20192;-76
2022/03/08 04:50:55;;;;;;;18.60;12.73;;;;;;;2.65;100.00;99331.94;5068426;28;20638;-76
2022/03/08 04:53:22;;;;;;;19.87;13.00;;;;;;;2.65;100.00;99332.78;5068633;28;20221;-75
2022/03/08 04:55:49;;;;;;;20.17;12.90;;;;;;;2.52;100.00;99308.00;5067940;28;20208;-75
2022/03/08 04:58:17;;;;;;;17.77;13.73;;;;;;;2.61;100.00;99310.56;5070990;28;20910;-76
2022/03/08 05:00:44;;;;;;;22.53;15.93;;;;;;;2.91;100.00;99325.94;5072184;28;20204;-77
2022/03/08 05:03:11;;;;;;;20.07;14.60;;;;;;;3.06;100.00;99334.44;5072386;28;20196;-77
2022/03/08 05:05:38;;;;;;;51.20;19.57;;;;;;;3.29;100.00;99336.09;5072270;28;20202;-77
2022/03/08 05:08:06;;;;;;;48.20;19.37;;;;;;;3.18;100.00;99314.75;5072128;28;20199;-76
2022/03/08 05:10:33;;;;;;;20.77;13.03;;;;;;;3.19;100.00;99313.91;5072487;28;20188;-78
2022/03/08 05:13:01;;;;;;;17.90;12.97;;;;;;;3.27;100.00;99347.25;5072332;28;20239;-77
2022/03/08 05:15:29;;;;;;;19.17;13.57;;;;;;;2.97;100.00;99298.56;5072563;28;20203;-77
2022/03/08 05:17:56;;;;;;;20.20;14.40;;;;;;;3.32;100.00;99354.91;5072650;28;20192;-78
2022/03/08 05:20:23;;;;;;;31.33;19.10;;;;;;;3.18;100.00;99349.81;5072679;28;20590;-77
2022/03/08 05:22:50;;;;;;;26.93;18.27;;;;;;;3.18;100.00;99352.38;5072343;28;20192;-77
2022/03/08 05:25:17;;;;;;;47.07;22.93;;;;;;;3.05;100.00;99353.28;5071731;28;20194;-77
2022/03/08 05:27:44;;;;;;;46.07;24.80;;;;;;;2.99;100.00;99343.88;5070717;28;20196;-75
2022/03/08 05:30:12;;;;;;;36.77;21.23;;;;;;;3.08;100.00;99354.09;5070961;28;20207;-77
2022/03/08 05:32:40;;;;;;;61.50;32.17;;;;;;;2.91;100.00;99346.44;5070889;28;20241;-77
2022/03/08 05:35:08;;;;;;;91.63;40.80;;;;;;;2.71;100.00;99322.53;5068634;28;20234;-77
2022/03/08 05:37:36;;;;;;;57.97;31.07;;;;;;;2.97;100.00;99353.25;5070066;28;20603;-77
2022/03/08 05:40:05;;;;;;;64.57;32.27;;;;;;;3.02;100.00;99350.72;5069147;28;20244;-77
2022/03/08 05:42:32;;;;;;;82.77;38.57;;;;;;;3.00;100.00;99354.97;5069671;28;20591;-77
2022/03/08 05:44:59;;;;;;;64.97;37.57;;;;;;;2.85;100.00;99361.81;5070133;28;20223;-76
2022/03/08 05:47:26;;;;;;;99.63;47.43;;;;;;;2.53;100.00;99309.72;5070108;28;20629;-77
2022/03/08 05:49:54;;;;;;;73.97;41.70;;;;;;;2.97;100.00;99360.94;5069920;28;20583;-76
2022/03/08 05:52:21;;;;;;;60.47;33.60;;;;;;;2.94;100.00;99368.63;5069872;28;20230;-76
2022/03/08 05:54:48;;;;;;;46.77;27.03;;;;;;;2.89;100.00;99366.09;5069942;28;20724;-76
2022/03/08 05:57:15;;;;;;;42.97;26.73;;;;;;;2.58;100.00;99319.97;5071296;28;20605;-76
2022/03/08 05:59:44;;;;;;;44.83;25.77;;;;;;;2.87;100.00;99374.63;5070712;28;20261;-76
2022/03/08 06:02:11;;;;;;;35.00;22.07;;;;;;;2.81;100.00;99344.75;5071883;28;20252;-75
2022/03/08 06:04:37;;;;;;;31.63;19.57;;;;;;;2.61;100.00;99349.00;5071590;28;20250;-75
2022/03/08 06:07:06;;;;;;;26.47;17.57;;;;;;;2.79;100.00;99376.34;5071685;28;20201;-76
2022/03/08 06:09:33;;;;;;;23.90;15.70;;;;;;;2.73;100.00;99361.81;5071330;28;20280;-76
2022/03/08 06:12:00;;;;;;;24.23;15.07;;;;;;;2.52;100.00;99333.63;5071165;28;20204;-76
2022/03/08 06:14:27;;;;;;;20.27;13.53;;;;;;;2.72;100.00;99375.47;5071468;28;20207;-77
2022/03/08 06:16:54;;;;;;;20.57;14.07;;;;;;;2.73;100.00;99378.91;5071269;28;20230;-77
2022/03/08 06:19:21;;;;;;;20.33;13.60;;;;;;;2.70;100.00;99386.59;5071399;28;20205;-74
2022/03/08 06:21:48;;;;;;;29.00;17.93;;;;;;;2.73;100.00;99386.59;5069700;28;20249;-77
2022/03/08 06:24:16;;;;;;;21.33;13.93;;;;;;;2.69;100.00;99390.88;5070708;28;20204;-75
2022/03/08 06:26:43;;;;;;;21.20;15.57;;;;;;;2.70;100.00;99391.72;5064301;28;20224;-76
2022/03/08 06:29:11;;;;;;;21.60;14.93;;;;;;;2.67;100.00;99391.72;5069883;28;20290;-75
2022/03/08 06:31:38;;;;;;;19.47;13.20;;;;;;;2.58;100.00;99392.56;5069906;28;20607;-76
2022/03/08 06:34:05;;;;;;;20.90;13.97;;;;;;;2.54;100.00;99386.59;5069259;28;20232;-76
2022/03/08 06:36:34;;;;;;;23.30;14.83;;;;;;;2.49;100.00;99392.53;5070601;28;20665;-77
2022/03/08 06:39:01;;;;;;;26.90;16.10;;;;;;;2.54;100.00;99395.97;5070414;28;20452;-77
2022/03/08 06:41:29;;;;;;;30.33;16.20;;;;;;;2.33;100.00;99367.75;5083341;28;20240;-77
2022/03/08 06:43:56;;;;;;;29.93;16.83;;;;;;;2.49;100.00;99401.06;5091084;28;20187;-76
2022/03/08 06:46:23;;;;;;;31.87;18.03;;;;;;;2.46;100.00;99402.81;5077793;28;20228;-76
2022/03/08 06:48:50;;;;;;;40.40;20.57;;;;;;;2.47;100.00;99404.50;5069997;28;20230;-75
2022/03/08 06:51:17;;;;;;;41.77;22.80;;;;;;;2.42;100.00;99404.50;5070485;28;20304;-76
2022/03/08 06:53:44;;;;;;;32.73;20.07;;;;;;;2.47;100.00;99402.81;5070601;28;20223;-75
2022/03/08 06:56:11;;;;;;;31.40;18.90;;;;;;;2.50;100.00;99400.22;5065615;28;20223;-75
2022/03/08 06:58:39;;;;;;;33.73;20.13;;;;;;;2.55;100.00;99419.03;5050480;28;20226;-76
2022/03/08 07:01:06;;;;;;;31.00;19.10;;;;;;;2.60;100.00;99405.38;5050098;28;20248;-76
2022/03/08 07:03:33;;;;;;;30.97;18.83;;;;;;;2.67;100.00;99402.81;5050043;28;20221;-75
2022/03/08 07:06:00;;;;;;;37.80;21.40;;;;;;;2.71;100.00;99409.63;5068574;28;20320;-76
2022/03/08 07:08:27;;;;;;;34.50;20.67;;;;;;;2.43;100.00;99361.81;5070458;28;20210;-75
2022/03/08 07:10:54;;;;;;;36.20;21.67;;;;;;;2.76;100.00;99404.53;5070578;28;20208;-76
2022/03/08 07:13:22;;;;;;;27.93;17.37;;;;;;;2.76;100.00;99407.94;5070289;28;20312;-76
2022/03/08 07:15:50;;;;;;;22.33;15.80;;;;;;;2.85;100.00;99399.41;5069239;28;20384;-75
2022/03/08 07:18:17;;;;;;;23.67;14.53;;;;;;;2.73;100.00;99407.09;5069275;28;20592;-77
2022/03/08 07:20:44;;;;;;;24.80;15.80;;;;;;;2.72;100.00;99408.78;5068638;28;20197;-75
2022/03/08 07:23:11;;;;;;;33.47;19.73;;;;;;;2.73;100.00;99407.09;5070495;28;20197;-78
2022/03/08 07:25:38;;;;;;;32.37;17.63;;;;;;;2.81;100.00;99410.53;5071198;28;20207;-77
2022/03/08 07:28:05;;;;;;;30.50;18.03;;;;;;;2.75;100.00;99406.25;5071152;28;20691;-76
2022/03/08 07:30:32;;;;;;;25.13;17.37;;;;;;;2.69;100.00;99402.84;5071470;28;20639;-78
2022/03/08 07:33:01;;;;;;;29.47;19.63;;;;;;;2.52;100.00;99359.25;5071013;28;20710;-77
2022/03/08 07:35:28;;;;;;;26.37;17.10;;;;;;;2.68;100.00;99389.16;5070925;28;20207;-76
2022/03/08 07:37:55;;;;;;;34.23;20.67;;;;;;;2.74;100.00;99414.78;5070871;28;20190;-79
2022/03/08 07:40:22;;;;;;;28.90;18.63;;;;;;;2.66;100.00;99398.56;5069558;28;20228;-78
2022/03/08 07:42:48;;;;;;;50.93;28.83;;;;;;;2.60;100.00;99398.53;5070476;28;20227;-75
2022/03/08 07:45:15;;;;;;;59.30;33.83;;;;;;;2.74;100.00;99409.66;5071053;28;20194;-75
2022/03/08 07:47:42;;;;;;;39.17;22.60;;;;;;;2.70;100.00;99407.97;5070790;28;20582;-76
2022/03/08 07:50:11;;;;;;;30.40;20.13;;;;;;;2.28;100.00;99354.94;5070967;28;20196;-76
2022/03/08 07:52:39;;;;;;;26.73;16.77;;;;;;;2.55;100.00;99384.88;5070472;28;20229;-77
2022/03/08 07:55:08;;;;;;;25.53;16.30;;;;;;;2.31;100.00;99375.44;5070757;28;20559;-76
2022/03/08 07:57:35;;;;;;;27.37;17.63;;;;;;;2.42;100.00;99404.50;5070532;28;20678;-78
2022/03/08 08:00:02;;;;;;;26.60;17.50;;;;;;;2.22;100.00;99402.75;5070644;28;20199;-77
2022/03/08 08:02:29;;;;;;;40.50;25.33;;;;;;;2.33;100.00;99388.25;5070785;28;20204;-77
2022/03/08 08:04:56;;;;;;;44.63;27.97;;;;;;;2.39;100.00;99378.88;5070303;28;20199;-75
2022/03/08 08:07:25;;;;;;;42.90;23.83;;;;;;;2.46;100.00;99372.06;5070328;28;20266;-76
2022/03/08 08:09:52;;;;;;;36.70;22.27;;;;;;;2.42;100.00;99344.72;5070351;28;20216;-76
2022/03/08 08:12:19;;;;;;;36.80;22.47;;;;;;;2.71;100.00;99384.03;5068952;28;20219;-75
2022/03/08 08:14:45;;;;;;;30.93;19.53;;;;;;;2.85;100.00;99392.56;5069719;28;20226;-76
2022/03/08 08:17:12;;;;;;;32.60;21.07;;;;;;;3.00;100.00;99388.31;5059132;28;20232;-75
2022/03/08 08:19:39;;;;;;;36.03;22.33;;;;;;;3.15;100.00;99388.31;5050120;28;20213;-75
2022/03/08 08:22:06;;;;;;;34.30;18.60;;;;;;;3.05;100.00;99386.59;5050296;28;20227;-75
2022/03/08 08:24:35;;;;;;;31.53;20.27;;;;;;;2.89;100.00;99388.31;5050384;28;20196;-77
2022/03/08 08:27:02;;;;;;;36.93;21.93;;;;;;;2.77;100.00;99381.47;5050486;28;20286;-76
2022/03/08 08:29:29;;;;;;;29.93;20.20;;;;;;;2.99;100.00;99378.91;5050467;28;20192;-76
2022/03/08 08:31:55;;;;;;;39.70;23.50;;;;;;;3.20;100.00;99378.88;5050767;28;20215;-76
2022/03/08 08:34:23;;;;;;;61.90;29.37;;;;;;;3.35;100.00;99378.00;5053906;28;20228;-76
2022/03/08 08:36:50;;;;;;;28.70;17.27;;;;;;;3.18;100.00;99349.81;5054143;28;20204;-76
2022/03/08 08:39:17;;;;;;;39.23;21.10;;;;;;;3.46;100.00;99372.00;5054184;28;20214;-77
2022/03/08 08:41:46;;;;;;;42.83;20.33;;;;;;;3.72;100.00;99379.63;5053928;28;20235;-76
2022/03/08 08:44:13;;;;;;;69.97;29.50;;;;;;;3.84;100.00;99389.81;5054285;28;20605;-77
2022/03/08 08:46:40;;;;;;;47.67;21.83;;;;;;;3.86;100.00;99387.25;5054357;28;20566;-76
2022/03/08 08:49:07;;;;;;;71.57;27.77;;;;;;;4.06;100.00;99384.63;5053834;28;20554;-77
2022/03/08 08:51:34;;;;;;;66.90;26.67;;;;;;;4.14;100.00;99391.41;5054095;28;20552;-77
2022/03/08 08:54:01;;;;;;;32.70;18.03;;;;;;;4.17;100.00;99391.41;5053676;28;20235;-79
2022/03/08 08:56:28;;;;;;;20.37;13.90;;;;;;;4.06;100.00;99384.63;5054076;28;20189;-77
2022/03/08 08:58:56;;;;;;;18.17;12.57;;;;;;;4.17;100.00;99393.13;5053598;28;20207;-77
2022/03/08 09:01:23;;;;;;;23.27;14.87;;;;;;;3.74;100.00;99346.22;5053507;28;20664;-76
2022/03/08 09:03:51;;;;;;;22.53;12.73;;;;;;;4.01;100.00;99387.19;5054143;28;20211;-76
2022/03/08 09:06:18;;;;;;;22.13;12.37;;;;;;;3.95;100.00;99393.19;5053870;28;20219;-75
2022/03/08 09:08:44;;;;;;;23.37;12.47;;;;;;;3.87;100.00;99399.22;5053506;28;20204;-77
2022/03/08 09:11:11;;;;;;;27.33;13.63;;;;;;;3.84;100.00;99388.97;5053344;28;20287;-77
2022/03/08 09:13:38;;;;;;;22.30;14.80;;;;;;;3.65;100.00;99391.59;5053199;28;20223;-77
2022/03/08 09:16:08;;;;;;;29.00;16.80;;;;;;;3.60;100.00;99385.66;5053118;28;20196;-74
2022/03/08 09:18:35;;;;;;;30.40;17.13;;;;;;;3.70;100.00;99378.78;5053261;28;20210;-76
2022/03/08 09:21:02;;;;;;;42.17;21.43;;;;;;;3.91;100.00;99382.97;5053381;28;20193;-74
2022/03/08 09:23:29;;;;;;;28.73;17.07;;;;;;;3.97;100.00;99388.06;5053305;28;20189;-75
2022/03/08 09:25:55;;;;;;;23.93;14.80;;;;;;;4.01;100.00;99382.06;5053602;28;20578;-75
2022/03/08 09:28:22;;;;;;;26.63;14.73;;;;;;;3.98;100.00;99379.50;5053161;28;20199;-74
2022/03/08 09:30:49;;;;;;;25.53;13.70;;;;;;;4.04;100.00;99391.47;5052876;28;20375;-78
2022/03/08 09:33:18;;;;;;;20.60;13.43;;;;;;;3.99;100.00;99392.34;5053173;28;20621;-75
2022/03/08 09:35:45;;;;;;;21.03;13.63;;;;;;;3.85;100.00;99388.09;5052743;28;20683;-74
2022/03/08 09:38:13;;;;;;;25.03;13.30;;;;;;;3.91;100.00;99399.22;5064218;28;20200;-75
2022/03/08 09:40:41;;;;;;;22.17;13.43;;;;;;;3.94;100.00;99400.94;5071390;28;20203;-75
2022/03/08 09:43:08;;;;;;;28.73;16.33;;;;;;;3.59;100.00;99350.56;5067437;28;20679;-75
2022/03/08 09:45:35;;;;;;;33.57;17.57;;;;;;;3.69;100.00;99410.44;5070386;28;20203;-74
2022/03/08 09:48:04;;;;;;;27.90;16.37;;;;;;;3.83;100.00;99407.81;5072810;28;20192;-74
2022/03/08 09:50:32;;;;;;;27.20;15.13;;;;;;;3.76;100.00;99395.84;5072712;28;20195;-75
2022/03/08 09:53:00;;;;;;;28.40;15.43;;;;;;;3.75;100.00;99409.53;5072243;28;20199;-75
2022/03/08 09:55:27;;;;;;;27.27;14.00;;;;;;;3.63;100.00;99406.16;5073237;28;20199;-74
2022/03/08 09:57:55;;;;;;;24.50;13.63;;;;;;;3.70;100.00;99408.72;5072787;28;20568;-74
2022/03/08 10:00:23;;;;;;;31.50;13.60;;;;;;;3.21;100.00;99342.13;5072345;28;20201;-74
2022/03/08 10:02:52;;;;;;;28.90;14.00;;;;;;;3.47;100.00;99404.50;5072367;28;20192;-74
2022/03/08 10:05:23;;;;;;;21.67;13.13;;;;;;;3.37;100.00;99382.28;5072108;28;20968;-75
2022/03/08 10:08:10;;;;;;;22.90;14.13;;;;;;;3.67;100.00;99409.56;5071627;28;20702;-75
2022/03/08 10:10:44;;;;;;;27.07;15.93;;;;;;;3.80;100.00;99413.81;5072118;28;20218;-75
2022/03/08 10:13:11;;;;;;;32.10;16.37;;;;;;;3.84;100.00;99417.19;5072019;28;20797;-74
2022/03/08 10:15:39;;;;;;;27.40;16.43;;;;;;;3.61;100.00;99387.31;5072477;28;20196;-75
2022/03/08 10:18:06;;;;;;;28.43;15.73;;;;;;;3.92;100.00;99407.78;5072155;28;20656;-76
2022/03/08 10:20:34;;;;;;;31.80;17.50;;;;;;;4.09;100.00;99417.97;5071966;28;20211;-74
2022/03/08 10:23:02;;;;;;;35.27;19.23;;;;;;;4.08;100.00;99418.81;5072120;28;20207;-75
2022/03/08 10:25:31;;;;;;;30.50;17.73;;;;;;;4.06;100.00;99416.28;5071919;28;20242;-73
2022/03/08 10:28:00;;;;;;;32.30;17.77;;;;;;;4.19;100.00;99417.91;5071615;28;20286;-76
2022/03/08 10:30:29;;;;;;;31.27;17.50;;;;;;;4.19;100.00;99401.66;5071992;28;20214;-75
2022/03/08 10:32:59;;;;;;;36.20;20.80;;;;;;;4.38;100.00;99424.69;5072130;28;20223;-75
2022/03/08 10:35:27;;;;;;;29.23;17.50;;;;;;;4.50;100.00;99426.34;5071760;28;20662;-75
2022/03/08 10:37:58;;;;;;;27.57;16.57;;;;;;;4.46;100.00;99431.50;5071611;28;20196;-75
2022/03/08 10:40:30;;;;;;;30.43;16.30;;;;;;;4.37;100.00;99420.41;5072201;28;20671;-74
2022/03/08 10:43:02;;;;;;;32.17;19.33;;;;;;;4.32;100.00;99424.72;5071447;28;20263;-75
2022/03/08 10:45:31;;;;;;;25.63;16.10;;;;;;;4.43;100.00;99423.78;5071483;28;20195;-76
2022/03/08 10:47:58;;;;;;;24.77;15.20;;;;;;;4.55;100.00;99416.00;5071683;28;20210;-74
2022/03/08 10:50:28;;;;;;;24.13;14.30;;;;;;;4.54;100.00;99432.28;5072055;28;20676;-75
2022/03/08 10:52:58;;;;;;;24.47;14.50;;;;;;;4.55;100.00;99423.72;5071697;28;20192;-76
2022/03/08 10:55:29;;;;;;;21.93;13.50;;;;;;;4.57;100.00;99415.16;5070871;28;20220;-75
2022/03/08 10:57:58;;;;;;;21.67;13.80;;;;;;;4.61;100.00;99431.41;5071427;28;20202;-74
2022/03/08 11:00:28;;;;;;;20.13;13.10;;;;;;;4.60;100.00;99427.13;5071353;28;20204;-74
2022/03/08 11:02:57;;;;;;;20.93;13.60;;;;;;;4.79;100.00;99431.28;5071016;28;20192;-75
2022/03/08 11:05:27;;;;;;;19.93;12.37;;;;;;;4.82;100.00;99426.13;5071445;28;20219;-75
2022/03/08 11:07:57;;;;;;;22.50;13.90;;;;;;;4.87;100.00;99426.06;5070851;28;20211;-76
2022/03/08 11:10:25;;;;;;;26.30;17.27;;;;;;;4.81;100.00;99419.28;5068900;28;20199;-75
2022/03/08 11:12:53;;;;;;;27.63;16.73;;;;;;;4.70;100.00;99391.06;5068753;28;20226;-74
2022/03/08 11:15:21;;;;;;;25.00;14.83;;;;;;;4.61;100.00;99352.59;5068923;28;20212;-75
2022/03/08 11:17:52;;;;;;;22.83;14.40;;;;;;;5.07;100.00;99430.22;5066616;28;20742;-74